createdAt,value
2018-10-02T00:01:57.134Z,102030.63
2018-10-02T00:04:25.819Z,102018.95
2018-10-02T00:06:55.046Z,102013.52
2018-10-02T00:09:23.845Z,102018.86
2018-10-02T00:11:58.417Z,102010.91
2018-10-02T00:14:28.995Z,102011.73
2018-10-02T00:16:57.944Z,102010.48
2018-10-02T00:19:27.319Z,102007.83
2018-10-02T00:21:55.945Z,102008.19
2018-10-02T00:24:24.579Z,102016.63
2018-10-02T00:26:54.324Z,102006.62
2018-10-02T00:29:23.024Z,102000.92
2018-10-02T00:31:52.270Z,101995.73
2018-10-02T00:34:20.904Z,102002.45
2018-10-02T00:36:49.515Z,101997.00
2018-10-02T00:39:18.134Z,101993.22
2018-10-02T00:41:46.699Z,101989.42
2018-10-02T00:44:15.310Z,101987.50
2018-10-02T00:46:43.925Z,101983.89
2018-10-02T00:49:12.516Z,101979.02
2018-10-02T00:51:41.213Z,101981.77
2018-10-02T00:54:09.853Z,101978.33
2018-10-02T00:56:39.080Z,101976.20
2018-10-02T00:59:07.620Z,101983.86
2018-10-02T01:01:36.240Z,101983.02
2018-10-02T01:04:04.755Z,101979.48
2018-10-02T01:06:33.353Z,101981.93
2018-10-02T01:09:01.979Z,101977.33
2018-10-02T01:11:31.234Z,101981.60
2018-10-02T01:13:59.839Z,101985.66
2018-10-02T01:16:28.569Z,101983.19
2018-10-02T01:18:57.168Z,101974.48
2018-10-02T01:21:26.279Z,101978.73
2018-10-02T01:23:55.953Z,101984.90
2018-10-02T01:26:24.764Z,101974.11
2018-10-02T01:28:53.494Z,101983.19
2018-10-02T01:31:22.114Z,101975.39
2018-10-02T01:33:50.773Z,101973.20
2018-10-02T01:36:19.516Z,101971.06
2018-10-02T01:38:48.073Z,101966.99
2018-10-02T01:41:16.719Z,101963.53
2018-10-02T01:43:46.203Z,101953.47
2018-10-02T01:46:14.798Z,101956.11
2018-10-02T01:48:43.553Z,101958.02
2018-10-02T01:51:12.188Z,101952.31
2018-10-02T01:53:41.145Z,101950.41
2018-10-02T01:56:09.959Z,101949.25
2018-10-02T01:58:38.971Z,101946.73
2018-10-02T02:01:08.289Z,101940.84
2018-10-02T02:03:37.000Z,101937.73
2018-10-02T02:06:05.680Z,101935.37
2018-10-02T02:08:34.415Z,101935.94
2018-10-02T02:11:02.989Z,101928.58
2018-10-02T02:13:31.563Z,101929.41
2018-10-02T02:16:00.203Z,101925.66
2018-10-02T02:18:28.753Z,101918.64
2018-10-02T02:20:57.318Z,101915.89
2018-10-02T02:23:26.104Z,101915.88
2018-10-02T02:25:54.630Z,101907.45
2018-10-02T02:28:23.237Z,101905.25
2018-10-02T02:30:52.163Z,101900.55
2018-10-02T02:33:20.723Z,101906.16
2018-10-02T02:35:49.583Z,101901.02
2018-10-02T02:38:18.649Z,101900.77
2018-10-02T02:40:47.508Z,101889.97
2018-10-02T02:43:16.089Z,101882.07
2018-10-02T02:45:44.664Z,101897.01
2018-10-02T02:48:18.359Z,101894.01
2018-10-02T02:50:56.488Z,101889.75
2018-10-02T02:53:26.003Z,101878.63
2018-10-02T02:55:54.559Z,101881.58
2018-10-02T02:58:23.254Z,101873.94
2018-10-02T03:00:51.888Z,101875.22
2018-10-02T03:03:20.544Z,101861.38
2018-10-02T03:05:50.364Z,101856.98
2018-10-02T03:08:19.659Z,101856.63
2018-10-02T03:10:48.224Z,101853.89
2018-10-02T03:13:16.957Z,101855.45
2018-10-02T03:15:45.618Z,101840.97
2018-10-02T03:18:14.356Z,101847.53
2018-10-02T03:20:43.521Z,101856.19
2018-10-02T03:23:12.108Z,101852.97
2018-10-02T03:25:40.668Z,101842.09
2018-10-02T03:28:09.274Z,101832.05
2018-10-02T03:30:37.863Z,101833.67
2018-10-02T03:33:06.849Z,101841.00
2018-10-02T03:35:35.418Z,101843.08
2018-10-02T03:38:04.605Z,101833.02
2018-10-02T03:40:33.363Z,101824.28
2018-10-02T03:43:02.538Z,101819.89
2018-10-02T03:45:31.099Z,101815.83
2018-10-02T03:47:59.664Z,101806.43
2018-10-02T03:50:28.280Z,101811.91
2018-10-02T03:52:57.604Z,101797.06
2018-10-02T03:55:26.229Z,101803.60
2018-10-02T03:57:55.588Z,101800.92
2018-10-02T04:00:24.194Z,101802.54
2018-10-02T04:02:52.759Z,101794.61
2018-10-02T04:05:21.395Z,101789.42
2018-10-02T04:07:50.425Z,101781.48
2018-10-02T04:10:19.887Z,101776.09
2018-10-02T04:12:48.794Z,101770.16
2018-10-02T04:15:17.318Z,101770.13
2018-10-02T04:17:45.939Z,101771.38
2018-10-02T04:20:14.620Z,101763.28
2018-10-02T04:22:43.943Z,101753.39
2018-10-02T04:25:12.622Z,101747.27
2018-10-02T04:27:41.756Z,101736.79
2018-10-02T04:30:11.171Z,101731.88
2018-10-02T04:32:39.847Z,101727.88
2018-10-02T04:35:08.480Z,101724.38
2018-10-02T04:37:37.171Z,101730.08
2018-10-02T04:40:05.787Z,101725.98
2018-10-02T04:42:34.954Z,101719.79
2018-10-02T04:45:04.195Z,101725.14
2018-10-02T04:47:33.404Z,101727.05
2018-10-02T04:50:02.066Z,101730.53
2018-10-02T04:52:30.648Z,101731.48
2018-10-02T04:54:59.238Z,101727.48
2018-10-02T04:57:27.875Z,101724.58
2018-10-02T04:59:56.550Z,101732.06
2018-10-02T05:02:25.168Z,101729.69
2018-10-02T05:04:54.321Z,101734.52
2018-10-02T05:07:22.938Z,101732.62
2018-10-02T05:09:51.695Z,101729.66
2018-10-02T05:12:20.408Z,101710.67
2018-10-02T05:14:50.604Z,101704.19
2018-10-02T05:17:20.155Z,101708.55
2018-10-02T05:19:48.828Z,101713.67
2018-10-02T05:22:17.572Z,101704.33
2018-10-02T05:24:46.155Z,101696.41
2018-10-02T05:27:16.369Z,101699.83
2018-10-02T05:29:45.768Z,101688.40
2018-10-02T05:32:15.165Z,101674.84
2018-10-02T05:34:43.855Z,101675.28
2018-10-02T05:37:12.377Z,101687.42
2018-10-02T05:39:41.733Z,101687.69
2018-10-02T05:42:10.835Z,101683.99
2018-10-02T05:44:39.918Z,101688.91
2018-10-02T05:47:08.598Z,101687.76
2018-10-02T05:49:37.319Z,101685.18
2018-10-02T05:52:06.499Z,101682.55
2018-10-02T05:54:35.123Z,101679.55
2018-10-02T05:57:03.934Z,101669.80
2018-10-02T05:59:32.605Z,101657.63
2018-10-02T06:02:01.604Z,101652.12
2018-10-02T06:04:30.205Z,101646.88
2018-10-02T06:06:59.024Z,101647.84
2018-10-02T06:09:27.623Z,101641.08
2018-10-02T06:11:56.244Z,101641.97
2018-10-02T06:14:24.948Z,101631.48
2018-10-02T06:16:53.565Z,101629.13
2018-10-02T06:19:22.199Z,101634.55
2018-10-02T06:21:51.768Z,101632.68
2018-10-02T06:24:20.439Z,101629.77
2018-10-02T06:26:50.116Z,101626.12
2018-10-02T06:29:19.424Z,101624.80
2018-10-02T06:31:48.004Z,101639.46
2018-10-02T06:34:16.699Z,101635.35
2018-10-02T06:36:45.245Z,101624.16
2018-10-02T06:39:13.948Z,101618.66
2018-10-02T06:41:42.585Z,101610.31
2018-10-02T06:44:11.658Z,101608.97
2018-10-02T06:46:40.558Z,101613.03
2018-10-02T06:49:09.308Z,101615.74
2018-10-02T06:51:38.157Z,101592.94
2018-10-02T06:54:06.693Z,101599.92
2018-10-02T06:56:35.296Z,101589.83
2018-10-02T06:59:03.914Z,101583.25
2018-10-02T07:01:33.495Z,101581.02
2018-10-02T07:04:03.374Z,101585.31
2018-10-02T07:06:32.117Z,101588.64
2018-10-02T07:09:00.941Z,101583.27
2018-10-02T07:11:29.502Z,101580.77
2018-10-02T07:13:58.340Z,101570.27
2018-10-02T07:16:27.032Z,101557.75
2018-10-02T07:18:55.769Z,101568.95
2018-10-02T07:21:24.489Z,101561.60
2018-10-02T07:23:53.878Z,101554.91
2018-10-02T07:26:22.504Z,101560.59
2018-10-02T07:28:51.298Z,101569.63
2018-10-02T07:31:20.385Z,101571.52
2018-10-02T07:33:49.521Z,101569.59
2018-10-02T07:36:18.804Z,101567.94
2018-10-02T07:38:47.480Z,101573.64
2018-10-02T07:41:16.128Z,101574.95
2018-10-02T07:43:44.776Z,101573.54
2018-10-02T07:46:13.545Z,101578.05
2018-10-02T07:48:42.478Z,101584.33
2018-10-02T07:51:11.128Z,101569.42
2018-10-02T07:53:40.108Z,101575.88
2018-10-02T07:56:08.772Z,101568.66
2018-10-02T07:58:37.437Z,101568.23
2018-10-02T08:01:06.108Z,101555.16
2018-10-02T08:03:35.321Z,101560.28
2018-10-02T08:06:04.007Z,101566.77
2018-10-02T08:08:32.742Z,101576.63
2018-10-02T08:11:02.063Z,101567.38
2018-10-02T08:13:30.842Z,101563.62
2018-10-02T08:15:59.539Z,101565.70
2018-10-02T08:18:28.449Z,101558.36
2018-10-02T08:20:57.272Z,101558.12
2018-10-02T08:23:26.846Z,101567.98
2018-10-02T08:25:55.625Z,101575.48
2018-10-02T08:28:25.221Z,101566.12
2018-10-02T08:30:53.899Z,101563.92
2018-10-02T08:33:22.524Z,101571.50
2018-10-02T08:35:51.832Z,101570.34
2018-10-02T08:38:20.352Z,101567.12
2018-10-02T08:40:49.000Z,101570.46
2018-10-02T08:43:18.422Z,101565.10
2018-10-02T08:45:47.573Z,101563.17
2018-10-02T08:48:16.744Z,101560.70
2018-10-02T08:50:45.383Z,101571.75
2018-10-02T08:53:13.995Z,101572.58
2018-10-02T08:55:43.225Z,101559.60
2018-10-02T08:58:11.818Z,101558.06
2018-10-02T09:00:40.560Z,101558.62
2018-10-02T09:03:10.102Z,101542.14
2018-10-02T09:05:38.738Z,101538.45
2018-10-02T09:08:07.630Z,101537.12
2018-10-02T09:10:36.713Z,101528.55
2018-10-02T09:13:05.479Z,101520.40
2018-10-02T09:15:34.134Z,101540.89
2018-10-02T09:18:02.679Z,101540.09
2018-10-02T09:20:31.084Z,101540.97
2018-10-02T09:22:59.619Z,101538.55
2018-10-02T09:25:28.218Z,101532.34
2018-10-02T09:27:57.202Z,101529.70
2018-10-02T09:30:30.943Z,101532.27
2018-10-02T09:33:04.765Z,101523.77
2018-10-02T09:35:38.518Z,101523.83
2018-10-02T09:38:12.428Z,101524.06
2018-10-02T09:40:46.934Z,101524.75
2018-10-02T09:43:54.192Z,101530.03
2018-10-02T09:46:23.353Z,101537.52
2018-10-02T09:48:51.989Z,101530.36
2018-10-02T09:51:20.678Z,101525.37
2018-10-02T09:53:50.359Z,101521.85
2018-10-02T09:56:19.114Z,101520.43
2018-10-02T09:58:47.833Z,101514.20
2018-10-02T10:01:21.543Z,101507.72
2018-10-02T10:03:50.383Z,101506.97
2018-10-02T10:06:19.099Z,101492.73
2018-10-02T10:08:47.753Z,101487.72
2018-10-02T10:11:16.473Z,101497.09
2018-10-02T10:13:45.114Z,101492.16
2018-10-02T10:16:13.884Z,101502.70
2018-10-02T10:18:43.253Z,101490.95
2018-10-02T10:21:13.457Z,101490.45
2018-10-02T10:23:42.805Z,101491.20
2018-10-02T10:26:11.597Z,101484.14
2018-10-02T10:28:40.468Z,101478.16
2018-10-02T10:31:09.568Z,101478.17
2018-10-02T10:33:38.266Z,101492.48
2018-10-02T10:36:07.048Z,101484.00
2018-10-02T10:38:35.764Z,101489.50
2018-10-02T10:41:04.594Z,101487.86
2018-10-02T10:43:33.389Z,101476.06
2018-10-02T10:46:02.556Z,101484.95
2018-10-02T10:48:31.502Z,101481.77
2018-10-02T10:51:00.154Z,101486.38
2018-10-02T10:53:29.536Z,101489.91
2018-10-02T10:55:59.313Z,101489.17
2018-10-02T10:58:27.981Z,101487.56
2018-10-02T11:00:56.657Z,101477.45
2018-10-02T11:03:25.284Z,101479.05
2018-10-02T11:05:54.083Z,101492.16
2018-10-02T11:08:22.743Z,101480.66
2018-10-02T11:10:51.468Z,101481.21
2018-10-02T11:13:20.423Z,101479.23
2018-10-02T11:15:49.204Z,101480.10
2018-10-02T11:18:17.984Z,101481.23
2018-10-02T11:20:46.863Z,101489.86
2018-10-02T11:23:15.765Z,101486.34
2018-10-02T11:25:44.473Z,101481.23
2018-10-02T11:28:13.148Z,101487.35
2018-10-02T11:30:42.972Z,101478.64
2018-10-02T11:33:11.752Z,101474.06
2018-10-02T11:35:41.132Z,101469.20
2018-10-02T11:38:09.854Z,101465.57
2018-10-02T11:40:38.588Z,101458.77
2018-10-02T11:43:07.592Z,101458.56
2018-10-02T11:45:36.733Z,101449.26
2018-10-02T11:48:05.314Z,101452.56
2018-10-02T11:50:34.303Z,101452.17
2018-10-02T11:53:03.032Z,101446.27
2018-10-02T11:55:32.222Z,101438.42
2018-10-02T11:58:01.755Z,101442.85
2018-10-02T12:00:30.499Z,101435.05
2018-10-02T12:02:59.172Z,101440.03
2018-10-02T12:05:28.054Z,101441.78
2018-10-02T12:07:56.688Z,101439.79
2018-10-02T12:10:25.383Z,101445.68
2018-10-02T12:12:54.179Z,101440.81
2018-10-02T12:15:24.428Z,101433.17
2018-10-02T12:17:53.202Z,101434.15
2018-10-02T12:20:21.894Z,101424.38
2018-10-02T12:22:51.827Z,101426.97
2018-10-02T12:25:20.983Z,101422.47
2018-10-02T12:27:49.699Z,101424.00
2018-10-02T12:30:18.384Z,101426.86
2018-10-02T12:32:47.088Z,101414.37
2018-10-02T12:35:15.639Z,101413.03
2018-10-02T12:37:44.215Z,101410.05
2018-10-02T12:40:13.021Z,101406.58
2018-10-02T12:42:41.648Z,101410.87
2018-10-02T12:45:10.364Z,101417.42
2018-10-02T12:47:39.542Z,101403.64
2018-10-02T12:50:08.361Z,101410.81
2018-10-02T12:52:37.146Z,101422.42
2018-10-02T12:55:05.818Z,101414.84
2018-10-02T12:57:34.470Z,101418.42
2018-10-02T13:00:03.177Z,101423.42
2018-10-02T13:02:32.093Z,101422.54
2018-10-02T13:05:00.749Z,101428.30
2018-10-02T13:07:29.378Z,101427.27
2018-10-02T13:09:58.087Z,101420.00
2018-10-02T13:12:26.629Z,101428.86
2018-10-02T13:14:55.383Z,101426.13
2018-10-02T13:17:24.082Z,101426.13
2018-10-02T13:19:52.822Z,101437.66
2018-10-02T13:22:21.648Z,101440.25
2018-10-02T13:24:50.312Z,101434.62
2018-10-02T13:27:19.796Z,101444.44
2018-10-02T13:29:48.427Z,101438.36
2018-10-02T13:32:17.131Z,101440.95
2018-10-02T13:34:45.969Z,101439.03
2018-10-02T13:37:14.719Z,101428.94
2018-10-02T13:39:43.345Z,101429.41
2018-10-02T13:42:12.612Z,101431.42
2018-10-02T13:44:41.329Z,101429.05
2018-10-02T13:47:09.937Z,101440.55
2018-10-02T13:49:38.516Z,101442.35
2018-10-02T13:52:08.253Z,101443.83
2018-10-02T13:54:36.923Z,101447.00
2018-10-02T13:57:05.664Z,101440.94
2018-10-02T13:59:34.618Z,101433.58
2018-10-02T14:02:04.261Z,101438.15
2018-10-02T14:04:33.208Z,101444.72
2018-10-02T14:07:01.801Z,101441.03
2018-10-02T14:09:30.404Z,101444.40
2018-10-02T14:11:59.133Z,101447.42
2018-10-02T14:14:28.448Z,101448.65
2018-10-02T14:16:57.064Z,101447.80
2018-10-02T14:19:25.947Z,101443.09
2018-10-02T14:21:54.780Z,101431.63
2018-10-02T14:24:23.442Z,101418.74
2018-10-02T14:26:52.374Z,101421.86
2018-10-02T14:29:21.227Z,101427.11
2018-10-02T14:31:50.726Z,101421.06
2018-10-02T14:34:19.303Z,101421.33
2018-10-02T14:36:47.868Z,101424.20
2018-10-02T14:39:16.674Z,101417.14
2018-10-02T14:41:46.135Z,101422.20
2018-10-02T14:44:14.749Z,101420.82
2018-10-02T14:46:44.011Z,101414.66
2018-10-02T14:49:12.784Z,101412.39
2018-10-02T14:51:41.602Z,101425.06
2018-10-02T14:54:10.676Z,101419.51
2018-10-02T14:56:40.055Z,101418.52
2018-10-02T14:59:08.738Z,101418.08
2018-10-02T15:01:37.486Z,101427.64
2018-10-02T15:04:06.581Z,101426.50
2018-10-02T15:06:35.269Z,101422.44
2018-10-02T15:09:05.549Z,101428.87
2018-10-02T15:11:34.281Z,101433.41
2018-10-02T15:14:03.056Z,101435.67
2018-10-02T15:16:31.602Z,101435.80
2018-10-02T15:19:01.044Z,101435.38
2018-10-02T15:21:30.121Z,101440.63
2018-10-02T15:23:58.794Z,101445.53
2018-10-02T15:26:28.056Z,101446.53
2018-10-02T15:28:56.809Z,101437.19
2018-10-02T15:31:25.400Z,101434.46
2018-10-02T15:33:54.017Z,101440.72
2018-10-02T15:36:23.739Z,101440.32
2018-10-02T15:38:53.133Z,101442.33
2018-10-02T15:41:21.832Z,101438.48
2018-10-02T15:43:50.599Z,101433.02
2018-10-02T15:46:19.169Z,101441.38
2018-10-02T15:48:47.760Z,101439.97
2018-10-02T15:51:17.210Z,101442.74
2018-10-02T15:53:45.852Z,101439.55
2018-10-02T15:56:14.633Z,101448.13
2018-10-02T15:58:43.976Z,101442.50
2018-10-02T16:01:12.707Z,101446.34
2018-10-02T16:03:41.428Z,101450.84
2018-10-02T16:06:10.128Z,101455.37
2018-10-02T16:08:38.843Z,101454.32
2018-10-02T16:11:07.464Z,101454.85
2018-10-02T16:13:36.432Z,101465.48
2018-10-02T16:16:05.001Z,101461.14
2018-10-02T16:18:34.159Z,101464.82
2018-10-02T16:21:02.918Z,101470.29
2018-10-02T16:23:31.555Z,101470.27
2018-10-02T16:26:00.298Z,101479.43
2018-10-02T16:28:29.002Z,101481.69
2018-10-02T16:30:58.217Z,101484.80
2018-10-02T16:33:26.846Z,101480.80
2018-10-02T16:35:55.787Z,101487.30
2018-10-02T16:38:24.583Z,101493.26
2018-10-02T16:40:54.961Z,101498.39
2018-10-02T16:43:23.924Z,101504.98
2018-10-02T16:45:52.626Z,101512.41
2018-10-02T16:48:21.450Z,101513.06
2018-10-02T16:50:50.234Z,101518.02
2018-10-02T16:53:18.935Z,101513.69
2018-10-02T16:55:47.616Z,101508.78
2018-10-02T16:58:16.431Z,101522.87
2018-10-02T17:00:45.056Z,101523.48
2018-10-02T17:03:13.731Z,101520.84
2018-10-02T17:05:43.088Z,101529.26
2018-10-02T17:08:11.631Z,101538.59
2018-10-02T17:10:41.036Z,101549.50
2018-10-02T17:13:09.696Z,101545.51
2018-10-02T17:15:38.443Z,101552.44
2018-10-02T17:18:07.222Z,101559.88
2018-10-02T17:20:35.947Z,101556.98
2018-10-02T17:23:04.651Z,101560.14
2018-10-02T17:25:34.271Z,101569.38
2018-10-02T17:28:04.155Z,101575.28
2018-10-02T17:30:32.784Z,101566.64
2018-10-02T17:33:01.592Z,101561.16
2018-10-02T17:35:30.327Z,101566.25
2018-10-02T17:37:58.885Z,101572.80
2018-10-02T17:40:27.607Z,101577.61
2018-10-02T17:42:56.416Z,101581.30
2018-10-02T17:45:25.201Z,101578.89
2018-10-02T17:47:55.148Z,101595.94
2018-10-02T17:50:24.469Z,101596.17
2018-10-02T17:52:53.146Z,101599.78
2018-10-02T17:55:21.792Z,101592.98
2018-10-02T17:57:50.377Z,101595.91
2018-10-02T18:00:19.064Z,101599.83
2018-10-02T18:02:47.623Z,101607.44
2018-10-02T18:05:16.281Z,101606.40
2018-10-02T18:07:45.216Z,101616.57
2018-10-02T18:10:13.798Z,101616.25
2018-10-02T18:12:43.290Z,101614.69
2018-10-02T18:15:12.872Z,101606.03
2018-10-02T18:17:41.691Z,101608.20
2018-10-02T18:20:11.195Z,101608.77
2018-10-02T18:22:40.627Z,101616.55
2018-10-02T18:25:09.415Z,101617.16
2018-10-02T18:27:38.060Z,101623.36
2018-10-02T18:30:06.795Z,101630.05
2018-10-02T18:32:35.396Z,101620.98
2018-10-02T18:35:04.070Z,101627.08
2018-10-02T18:37:32.660Z,101627.00
2018-10-02T18:40:01.428Z,101629.34
2018-10-02T18:42:30.742Z,101635.89
2018-10-02T18:44:59.358Z,101639.73
2018-10-02T18:47:27.923Z,101626.84
2018-10-02T18:49:56.507Z,101628.13
2018-10-02T18:52:25.075Z,101625.09
2018-10-02T18:54:53.700Z,101634.14
2018-10-02T18:57:22.348Z,101631.56
2018-10-02T18:59:51.083Z,101628.83
2018-10-02T19:02:20.736Z,101643.16
2018-10-02T19:04:49.406Z,101633.59
2018-10-02T19:07:18.132Z,101638.44
2018-10-02T19:09:48.418Z,101641.09
2018-10-02T19:12:18.757Z,101641.90
2018-10-02T19:14:47.441Z,101648.59
2018-10-02T19:17:16.418Z,101651.61
2018-10-02T19:19:50.256Z,101650.08
2018-10-02T19:22:18.956Z,101659.67
2018-10-02T19:24:47.754Z,101660.37
2018-10-02T19:27:16.416Z,101664.25
2018-10-02T19:29:46.006Z,101670.75
2018-10-02T19:32:17.472Z,101672.49
2018-10-02T19:34:46.471Z,101667.42
2018-10-02T19:37:20.350Z,101660.55
2018-10-02T19:39:49.107Z,101670.26
2018-10-02T19:42:18.602Z,101662.95
2018-10-02T19:44:47.642Z,101670.89
2018-10-02T19:47:17.088Z,101668.65
2018-10-02T19:49:45.793Z,101671.52
2018-10-02T19:52:16.490Z,101674.66
2018-10-02T19:54:45.912Z,101679.90
2018-10-02T19:57:17.084Z,101672.73
2018-10-02T19:59:45.700Z,101675.56
2018-10-02T20:02:14.316Z,101684.16
2018-10-02T20:04:42.985Z,101681.61
2018-10-02T20:07:11.605Z,101673.44
2018-10-02T20:09:40.345Z,101682.52
2018-10-02T20:12:08.941Z,101684.44
2018-10-02T20:14:37.676Z,101686.34
2018-10-02T20:17:06.665Z,101678.13
2018-10-02T20:19:36.332Z,101686.29
2018-10-02T20:22:05.376Z,101681.20
2018-10-02T20:24:34.595Z,101682.11
2018-10-02T20:27:03.176Z,101683.70
2018-10-02T20:29:32.601Z,101687.44
2018-10-02T20:32:01.219Z,101694.36
2018-10-02T20:34:29.867Z,101694.31
2018-10-02T20:36:58.783Z,101700.89
2018-10-02T20:39:27.461Z,101706.41
2018-10-02T20:41:56.420Z,101703.69
2018-10-02T20:44:25.880Z,101709.97
2018-10-02T20:46:54.786Z,101710.64
2018-10-02T20:49:23.665Z,101701.80
2018-10-02T20:51:53.017Z,101700.15
2018-10-02T20:54:21.615Z,101707.45
2018-10-02T20:56:50.323Z,101708.16
2018-10-02T20:59:18.977Z,101704.38
2018-10-02T21:01:47.655Z,101706.72
2018-10-02T21:04:16.272Z,101706.48
2018-10-02T21:06:45.017Z,101700.08
2018-10-02T21:09:13.665Z,101698.52
2018-10-02T21:11:42.227Z,101699.11
2018-10-02T21:14:11.450Z,101708.50
2018-10-02T21:16:40.105Z,101711.86
2018-10-02T21:19:09.446Z,101711.75
2018-10-02T21:21:38.650Z,101710.63
2018-10-02T21:24:07.426Z,101702.52
2018-10-02T21:26:36.054Z,101701.28
2018-10-02T21:29:04.683Z,101704.55
2018-10-02T21:31:33.651Z,101701.76
2018-10-02T21:34:03.097Z,101698.64
2018-10-02T21:36:31.691Z,101702.08
2018-10-02T21:39:00.492Z,101697.85
2018-10-02T21:41:29.111Z,101696.55
2018-10-02T21:43:57.817Z,101700.32
2018-10-02T21:46:26.757Z,101690.27
2018-10-02T21:48:55.465Z,101694.25
2018-10-02T21:51:24.467Z,101692.39
2018-10-02T21:53:53.303Z,101690.41
2018-10-02T21:56:22.117Z,101687.69
2018-10-02T21:58:50.743Z,101687.33
2018-10-02T22:01:19.395Z,101688.63
2018-10-02T22:03:48.694Z,101693.38
2018-10-02T22:06:17.817Z,101697.52
2018-10-02T22:08:46.448Z,101690.25
2018-10-02T22:11:15.250Z,101695.61
2018-10-02T22:13:43.866Z,101698.43
2018-10-02T22:16:12.473Z,101695.70
2018-10-02T22:18:41.063Z,101705.55
2018-10-02T22:21:09.797Z,101695.55
2018-10-02T22:23:38.355Z,101694.09
2018-10-02T22:26:07.033Z,101691.55
2018-10-02T22:28:35.691Z,101695.38
2018-10-02T22:31:04.295Z,101693.46
2018-10-02T22:33:32.910Z,101695.04
2018-10-02T22:36:01.444Z,101691.91
2018-10-02T22:38:30.337Z,101692.19
2018-10-02T22:40:59.019Z,101695.36
2018-10-02T22:43:27.755Z,101690.53
2018-10-02T22:45:57.456Z,101697.99
2018-10-02T22:48:26.045Z,101703.63
2018-10-02T22:50:55.325Z,101699.53
2018-10-02T22:53:25.205Z,101696.60
2018-10-02T22:55:53.975Z,101694.90
2018-10-02T22:58:23.251Z,101696.72
2018-10-02T23:00:52.705Z,101693.47
2018-10-02T23:03:21.650Z,101698.11
2018-10-02T23:05:50.226Z,101691.58
2018-10-02T23:08:18.772Z,101698.66
2018-10-02T23:10:47.722Z,101694.09
2018-10-02T23:13:16.515Z,101704.62
2018-10-02T23:15:45.829Z,101697.53
2018-10-02T23:18:14.492Z,101698.12
2018-10-02T23:20:43.156Z,101710.92
2018-10-02T23:23:11.980Z,101712.92
2018-10-02T23:25:40.561Z,101714.75
2018-10-02T23:28:09.187Z,101714.41
2018-10-02T23:30:37.925Z,101713.84
2018-10-02T23:33:07.138Z,101709.50
2018-10-02T23:35:35.861Z,101711.19
2018-10-02T23:38:04.581Z,101718.91
2018-10-02T23:40:33.222Z,101717.93
2018-10-02T23:43:01.864Z,101720.59
2018-10-02T23:45:30.546Z,101719.87
2018-10-02T23:47:59.327Z,101715.16
2018-10-02T23:50:28.196Z,101717.82
2018-10-02T23:52:56.894Z,101718.26
2018-10-02T23:55:25.530Z,101725.78
2018-10-02T23:57:54.214Z,101737.73
